Time;durP1;ratioP1;P1;durP2;ratioP2;P2;SDS_P1;SDS_P2;PMS_P1;PMS_P2;Temp;Humidity;BMP_temperature;BMP_pressure;BME280_temperature;BME280_humidity;BME280_pressure;Samples;Min_cycle;Max_cycle;Signal;HPM_P1;HPM_P2
2023/05/14 00:00:49;;;;;;;2.38;2.17;;;;;;;;;;4980493;28;20051;-76
2023/05/14 00:03:16;;;;;;;3.33;2.50;;;;;;;;;;4981466;28;20042;-76
2023/05/14 00:05:44;;;;;;;2.55;2.35;;;;;;;;;;4990848;28;20492;-73
2023/05/14 00:08:11;;;;;;;2.17;2.08;;;;;;;;;;4985447;28;20042;-75
2023/05/14 00:10:40;;;;;;;2.30;2.20;;;;;;;;;;4988499;28;20050;-75
2023/05/14 00:13:07;;;;;;;2.90;2.70;;;;;;;;;;4977895;28;20054;-76
2023/05/14 00:15:35;;;;;;;3.28;2.00;;;;;;;;;;4967626;28;20180;-76
2023/05/14 00:18:02;;;;;;;2.50;2.30;;;;;;;;;;4964024;28;20114;-76
2023/05/14 00:20:30;;;;;;;2.42;2.30;;;;;;;;;;4972079;28;20046;-77
2023/05/14 00:22:57;;;;;;;2.22;2.13;;;;;;;;;;4972836;28;20531;-76
2023/05/14 00:25:25;;;;;;;2.60;2.40;;;;;;;;;;4967905;28;20051;-76
2023/05/14 00:27:52;;;;;;;2.55;2.35;;;;;;;;;;4960171;28;20050;-76
2023/05/14 00:30:19;;;;;;;2.42;2.33;;;;;;;;;;4972724;28;20152;-77
2023/05/14 00:32:47;;;;;;;2.60;2.40;;;;;;;;;;4970404;28;20492;-76
2023/05/14 00:35:15;;;;;;;2.92;2.72;;;;;;;;;;4968523;28;20050;-76
2023/05/14 00:37:42;;;;;;;2.80;2.55;;;;;;;;;;4965683;28;20069;-75
2023/05/14 00:40:11;;;;;;;2.67;2.47;;;;;;;;;;4960031;28;20046;-76
2023/05/14 00:42:40;;;;;;;2.47;2.33;;;;;;;;;;4961485;28;20078;-78
2023/05/14 00:45:08;;;;;;;3.63;1.98;;;;;;;;;;4946330;28;20113;-74
2023/05/14 00:47:36;;;;;;;2.20;2.10;;;;;;;;;;4982286;28;20130;-76
2023/05/14 00:50:04;;;;;;;2.67;2.47;;;;;;;;;;4974016;28;20038;-77
2023/05/14 00:52:32;;;;;;;2.30;2.13;;;;;;;;;;4957363;28;20049;-75
2023/05/14 00:55:00;;;;;;;2.47;2.30;;;;;;;;;;4986039;28;20053;-76
2023/05/14 00:57:27;;;;;;;2.17;2.08;;;;;;;;;;4970150;28;20385;-75
2023/05/14 00:59:55;;;;;;;3.03;2.60;;;;;;;;;;4976330;28;20042;-75
2023/05/14 01:02:23;;;;;;;3.97;2.45;;;;;;;;;;4979079;28;20046;-77
2023/05/14 01:04:51;;;;;;;2.60;2.40;;;;;;;;;;4966744;28;20057;-77
2023/05/14 01:07:21;;;;;;;2.15;1.95;;;;;;;;;;4984910;28;20468;-75
2023/05/14 01:10:00;;;;;;;2.35;2.00;;;;;;;;;;4979170;28;20047;-75
2023/05/14 01:12:28;;;;;;;1.90;1.80;;;;;;;;;;4965423;28;20440;-75
2023/05/14 01:15:05;;;;;;;1.92;1.83;;;;;;;;;;4983723;28;20046;-76
2023/05/14 01:17:33;;;;;;;2.10;2.00;;;;;;;;;;4983144;28;20092;-77
2023/05/14 01:20:00;;;;;;;2.15;2.03;;;;;;;;;;4982892;28;20070;-75
2023/05/14 01:22:28;;;;;;;2.25;2.05;;;;;;;;;;4979415;28;20069;-76
2023/05/14 01:24:55;;;;;;;2.05;1.95;;;;;;;;;;4984369;28;20061;-77
2023/05/14 01:27:39;;;;;;;1.75;1.65;;;;;;;;;;4970113;28;20038;-76
2023/05/14 01:30:10;;;;;;;2.20;2.00;;;;;;;;;;4968187;28;20049;-75
2023/05/14 01:32:38;;;;;;;2.10;2.00;;;;;;;;;;4967549;28;20451;-76
2023/05/14 01:35:07;;;;;;;2.10;2.00;;;;;;;;;;4963227;28;20412;-76
2023/05/14 01:37:36;;;;;;;2.22;2.13;;;;;;;;;;4973019;28;20511;-76
2023/05/14 01:40:04;;;;;;;2.15;2.05;;;;;;;;;;4976757;28;20050;-76
2023/05/14 01:42:33;;;;;;;2.47;2.13;;;;;;;;;;4967006;28;20062;-77
2023/05/14 01:45:00;;;;;;;2.30;2.20;;;;;;;;;;4987394;28;20059;-76
2023/05/14 01:47:27;;;;;;;2.20;2.10;;;;;;;;;;4979225;28;20101;-75
2023/05/14 01:49:55;;;;;;;2.38;2.17;;;;;;;;;;4968118;28;20238;-76
2023/05/14 01:52:22;;;;;;;2.40;2.20;;;;;;;;;;4969424;28;20046;-76
2023/05/14 01:54:50;;;;;;;2.25;2.15;;;;;;;;;;4990512;28;20137;-77
2023/05/14 01:57:17;;;;;;;2.60;2.40;;;;;;;;;;4973755;28;20104;-76
2023/05/14 01:59:45;;;;;;;3.03;2.05;;;;;;;;;;4969349;28;20042;-75
2023/05/14 02:02:12;;;;;;;3.13;2.58;;;;;;;;;;4984051;28;20046;-76
2023/05/14 02:04:40;;;;;;;2.88;2.58;;;;;;;;;;4983631;28;20098;-77
2023/05/14 02:07:07;;;;;;;3.38;2.28;;;;;;;;;;4983297;28;20104;-76
2023/05/14 02:09:35;;;;;;;2.50;2.30;;;;;;;;;;4989698;28;20039;-78
2023/05/14 02:12:02;;;;;;;3.85;2.13;;;;;;;;;;4986892;28;20500;-75
2023/05/14 02:14:29;;;;;;;3.05;2.72;;;;;;;;;;4974599;28;20057;-75
2023/05/14 02:16:57;;;;;;;2.17;2.00;;;;;;;;;;4978097;28;20057;-76
2023/05/14 02:19:24;;;;;;;3.40;2.33;;;;;;;;;;4977194;28;20101;-76
2023/05/14 02:21:52;;;;;;;2.38;2.17;;;;;;;;;;4973213;28;20061;-76
2023/05/14 02:24:19;;;;;;;3.08;2.35;;;;;;;;;;4980719;28;20042;-77
2023/05/14 02:26:47;;;;;;;2.50;2.40;;;;;;;;;;4976095;28;20497;-75
2023/05/14 02:29:14;;;;;;;2.50;2.30;;;;;;;;;;4970159;28;20038;-76
2023/05/14 02:31:42;;;;;;;2.47;2.20;;;;;;;;;;4984060;28;20093;-76
2023/05/14 02:34:09;;;;;;;2.50;2.10;;;;;;;;;;4961960;28;20570;-76
2023/05/14 02:36:37;;;;;;;2.05;1.95;;;;;;;;;;4990663;28;20037;-75
2023/05/14 02:39:04;;;;;;;2.30;2.10;;;;;;;;;;4975552;28;20042;-77
2023/05/14 02:41:32;;;;;;;2.95;2.42;;;;;;;;;;4976560;28;20042;-75
2023/05/14 02:43:59;;;;;;;2.78;2.25;;;;;;;;;;4999543;28;20054;-75
2023/05/14 02:46:26;;;;;;;2.35;2.20;;;;;;;;;;4986834;28;20050;-77
2023/05/14 02:48:54;;;;;;;2.58;2.40;;;;;;;;;;4967344;28;20475;-75
2023/05/14 02:51:22;;;;;;;2.60;2.40;;;;;;;;;;4977000;28;20393;-76
2023/05/14 02:53:49;;;;;;;2.95;2.60;;;;;;;;;;4993056;28;20045;-75
2023/05/14 02:56:17;;;;;;;2.22;2.10;;;;;;;;;;4987215;28;20050;-76
2023/05/14 02:58:44;;;;;;;3.58;2.50;;;;;;;;;;4984241;28;20058;-75
2023/05/14 03:01:11;;;;;;;2.17;1.98;;;;;;;;;;4965581;28;20073;-77
2023/05/14 03:03:39;;;;;;;2.85;2.20;;;;;;;;;;4965748;28;20046;-75
2023/05/14 03:06:07;;;;;;;1.98;1.88;;;;;;;;;;4995758;28;20054;-76
2023/05/14 03:08:35;;;;;;;3.70;2.10;;;;;;;;;;4989405;28;20053;-75
2023/05/14 03:11:03;;;;;;;2.17;2.08;;;;;;;;;;4983238;28;20128;-76
2023/05/14 03:13:30;;;;;;;3.10;2.80;;;;;;;;;;4966774;28;20038;-76
2023/05/14 03:15:58;;;;;;;3.72;2.40;;;;;;;;;;4967128;28;20057;-75
2023/05/14 03:18:27;;;;;;;3.25;2.10;;;;;;;;;;4986904;28;20133;-76
2023/05/14 03:20:54;;;;;;;2.17;2.08;;;;;;;;;;4964992;28;20050;-76
2023/05/14 03:23:22;;;;;;;2.33;2.22;;;;;;;;;;4982487;28;20073;-75
2023/05/14 03:25:51;;;;;;;2.60;2.40;;;;;;;;;;4982116;28;20238;-76
2023/05/14 03:28:18;;;;;;;2.50;2.30;;;;;;;;;;4982566;28;20065;-75
2023/05/14 03:30:46;;;;;;;2.80;2.60;;;;;;;;;;4975386;28;20480;-76
2023/05/14 03:33:14;;;;;;;2.75;2.55;;;;;;;;;;4967821;28;20044;-76
2023/05/14 03:35:41;;;;;;;2.30;2.20;;;;;;;;;;4985062;28;20478;-77
2023/05/14 03:38:09;;;;;;;2.60;2.40;;;;;;;;;;4959655;28;20141;-76
2023/05/14 03:40:36;;;;;;;2.40;2.30;;;;;;;;;;4979076;28;20137;-76
2023/05/14 03:43:04;;;;;;;2.20;2.10;;;;;;;;;;4982872;28;20058;-75
2023/05/14 03:45:31;;;;;;;2.38;2.17;;;;;;;;;;4965516;28;20053;-77
2023/05/14 03:47:59;;;;;;;2.40;2.20;;;;;;;;;;5005550;23;20072;-71
2023/05/14 03:50:27;;;;;;;2.53;2.33;;;;;;;;;;4993280;28;20497;-72
2023/05/14 03:52:55;;;;;;;1.90;1.80;;;;;;;;;;5001666;28;20045;-71
2023/05/14 03:55:22;;;;;;;2.08;1.88;;;;;;;;;;5000864;28;20474;-71
2023/05/14 03:57:49;;;;;;;2.08;1.95;;;;;;;;;;5002246;28;20424;-71
2023/05/14 04:00:17;;;;;;;2.17;2.05;;;;;;;;;;5006852;28;20409;-72
2023/05/14 04:02:44;;;;;;;1.75;1.65;;;;;;;;;;5021344;28;20107;-71
2023/05/14 04:05:12;;;;;;;1.90;1.80;;;;;;;;;;5001973;28;20582;-71
2023/05/14 04:07:39;;;;;;;1.92;1.83;;;;;;;;;;5020194;28;20034;-71
2023/05/14 04:10:07;;;;;;;2.08;1.98;;;;;;;;;;5004060;28;20206;-71
2023/05/14 04:12:35;;;;;;;2.05;1.95;;;;;;;;;;5017884;28;20411;-71
2023/05/14 04:15:03;;;;;;;1.88;1.77;;;;;;;;;;4987785;28;20049;-71
2023/05/14 04:17:31;;;;;;;1.88;1.77;;;;;;;;;;5002949;28;20490;-71
2023/05/14 04:20:01;;;;;;;2.17;2.08;;;;;;;;;;5002110;28;20073;-71
2023/05/14 04:22:28;;;;;;;2.10;2.00;;;;;;;;;;5005574;28;20132;-71
2023/05/14 04:24:56;;;;;;;3.00;1.77;;;;;;;;;;5020906;28;20418;-71
2023/05/14 04:27:23;;;;;;;1.92;1.83;;;;;;;;;;5011671;28;20076;-71
2023/05/14 04:29:51;;;;;;;2.08;1.98;;;;;;;;;;5019287;28;20049;-71
2023/05/14 04:32:19;;;;;;;2.22;2.05;;;;;;;;;;5016019;28;20044;-71
2023/05/14 04:34:46;;;;;;;2.65;2.45;;;;;;;;;;5021103;28;20129;-71
2023/05/14 04:37:14;;;;;;;2.33;2.20;;;;;;;;;;5015754;28;20124;-71
2023/05/14 04:39:42;;;;;;;2.38;2.20;;;;;;;;;;5014268;28;20046;-72
2023/05/14 04:42:09;;;;;;;2.63;2.42;;;;;;;;;;5009888;28;20136;-71
2023/05/14 04:44:37;;;;;;;2.95;2.60;;;;;;;;;;5010494;28;20045;-71
2023/05/14 04:47:05;;;;;;;2.65;2.45;;;;;;;;;;5019332;28;20045;-73
2023/05/14 04:49:33;;;;;;;2.65;2.45;;;;;;;;;;5019456;28;20052;-71
2023/05/14 04:52:01;;;;;;;2.33;2.15;;;;;;;;;;5016693;28;20061;-71
2023/05/14 04:54:29;;;;;;;2.67;2.50;;;;;;;;;;5017161;28;20045;-71
2023/05/14 04:56:56;;;;;;;3.00;2.70;;;;;;;;;;5017793;28;20110;-71
2023/05/14 04:59:23;;;;;;;2.90;2.70;;;;;;;;;;5012813;28;20074;-71
2023/05/14 05:01:51;;;;;;;3.42;3.13;;;;;;;;;;5019913;28;20306;-71
2023/05/14 05:04:18;;;;;;;2.63;2.42;;;;;;;;;;5029017;28;20045;-71
2023/05/14 05:06:46;;;;;;;2.88;2.67;;;;;;;;;;5023217;28;20041;-72
2023/05/14 05:09:13;;;;;;;2.67;2.47;;;;;;;;;;5017772;28;20053;-72
2023/05/14 05:11:41;;;;;;;2.75;2.55;;;;;;;;;;5019843;28;20411;-72
2023/05/14 05:14:08;;;;;;;2.58;2.47;;;;;;;;;;5005820;28;20056;-71
2023/05/14 05:16:36;;;;;;;2.10;2.00;;;;;;;;;;5018977;28;20068;-72
2023/05/14 05:19:03;;;;;;;2.45;2.30;;;;;;;;;;5023387;28;20056;-72
2023/05/14 05:21:30;;;;;;;1.70;1.65;;;;;;;;;;5014568;28;20100;-72
2023/05/14 05:23:58;;;;;;;2.40;2.30;;;;;;;;;;5014926;28;20094;-72
2023/05/14 05:26:26;;;;;;;2.28;2.17;;;;;;;;;;5014062;28;20087;-71
2023/05/14 05:28:54;;;;;;;2.30;2.20;;;;;;;;;;5014444;28;20394;-73
2023/05/14 05:31:21;;;;;;;3.13;2.67;;;;;;;;;;5011181;28;20053;-73
2023/05/14 05:33:49;;;;;;;2.38;2.28;;;;;;;;;;5021726;28;20057;-73
2023/05/14 05:36:16;;;;;;;2.22;2.13;;;;;;;;;;5014678;28;20052;-73
2023/05/14 05:38:44;;;;;;;2.15;1.98;;;;;;;;;;5021305;28;20042;-73
2023/05/14 05:41:11;;;;;;;3.00;2.70;;;;;;;;;;5011122;28;20049;-73
2023/05/14 05:43:39;;;;;;;2.83;2.63;;;;;;;;;;5015220;28;20049;-73
2023/05/14 05:46:07;;;;;;;2.70;2.50;;;;;;;;;;5020555;28;20129;-73
2023/05/14 05:48:34;;;;;;;2.90;2.70;;;;;;;;;;5017713;28;20073;-73
2023/05/14 05:51:02;;;;;;;3.13;2.85;;;;;;;;;;5016042;28;20051;-72
2023/05/14 05:53:29;;;;;;;2.58;2.38;;;;;;;;;;5019246;28;20050;-72
2023/05/14 05:55:56;;;;;;;3.03;2.60;;;;;;;;;;5021048;28;20542;-72
2023/05/14 05:58:24;;;;;;;2.70;2.50;;;;;;;;;;5019856;28;20542;-73
2023/05/14 06:00:52;;;;;;;3.40;3.20;;;;;;;;;;5008705;28;20052;-73
2023/05/14 06:03:20;;;;;;;2.40;2.22;;;;;;;;;;5014800;28;20503;-73
2023/05/14 06:05:48;;;;;;;2.90;2.70;;;;;;;;;;5012071;28;20461;-73
2023/05/14 06:08:16;;;;;;;2.47;2.28;;;;;;;;;;5016488;28;20050;-73
2023/05/14 06:10:43;;;;;;;2.35;2.25;;;;;;;;;;5020617;28;20055;-73
2023/05/14 06:13:13;;;;;;;2.22;2.13;;;;;;;;;;5018036;28;20052;-73
2023/05/14 06:15:41;;;;;;;2.60;2.40;;;;;;;;;;5017259;28;20396;-73
2023/05/14 06:18:09;;;;;;;2.20;2.10;;;;;;;;;;5012300;28;20144;-73
2023/05/14 06:20:36;;;;;;;2.50;2.40;;;;;;;;;;5015704;28;20443;-72
2023/05/14 06:23:03;;;;;;;2.47;2.28;;;;;;;;;;5010787;28;20096;-73
2023/05/14 06:25:31;;;;;;;2.17;1.98;;;;;;;;;;5008797;28;20057;-72
2023/05/14 06:27:58;;;;;;;2.33;2.20;;;;;;;;;;5001917;28;20526;-73
2023/05/14 06:30:26;;;;;;;1.98;1.88;;;;;;;;;;5013639;28;20511;-73
2023/05/14 06:32:53;;;;;;;2.42;2.20;;;;;;;;;;5015717;28;20049;-73
2023/05/14 06:35:21;;;;;;;2.30;2.10;;;;;;;;;;5017319;28;20046;-72
2023/05/14 06:37:48;;;;;;;2.88;2.67;;;;;;;;;;5015619;28;20091;-72
2023/05/14 06:40:15;;;;;;;2.80;2.60;;;;;;;;;;4998666;28;20042;-73
2023/05/14 06:42:43;;;;;;;2.05;1.90;;;;;;;;;;5019092;28;20072;-73
2023/05/14 06:45:10;;;;;;;2.20;2.10;;;;;;;;;;5009228;28;20100;-74
2023/05/14 06:47:38;;;;;;;2.90;2.70;;;;;;;;;;5018272;28;20131;-72
2023/05/14 06:50:05;;;;;;;2.67;2.47;;;;;;;;;;5016683;28;20045;-72
2023/05/14 06:52:35;;;;;;;2.67;2.47;;;;;;;;;;5024298;28;20172;-72
2023/05/14 06:55:02;;;;;;;4.60;2.33;;;;;;;;;;5019492;28;20492;-72
2023/05/14 06:57:30;;;;;;;2.70;2.50;;;;;;;;;;5023428;28;20069;-72
2023/05/14 06:59:57;;;;;;;2.53;2.35;;;;;;;;;;5010447;28;20042;-72
2023/05/14 07:02:25;;;;;;;2.60;2.42;;;;;;;;;;5017104;28;20039;-72
2023/05/14 07:04:52;;;;;;;2.38;2.28;;;;;;;;;;5021552;28;20045;-72
2023/05/14 07:07:20;;;;;;;2.00;1.90;;;;;;;;;;5007208;28;20046;-72
2023/05/14 07:09:47;;;;;;;2.63;2.42;;;;;;;;;;5009710;28;20119;-72
2023/05/14 07:12:14;;;;;;;1.90;1.80;;;;;;;;;;5015705;28;20791;-73
2023/05/14 07:14:42;;;;;;;2.00;1.90;;;;;;;;;;5020009;28;20061;-73
2023/05/14 07:17:10;;;;;;;2.20;2.10;;;;;;;;;;5012753;28;20117;-73
2023/05/14 07:19:37;;;;;;;3.30;2.38;;;;;;;;;;5004063;28;20380;-73
2023/05/14 07:22:05;;;;;;;2.00;1.90;;;;;;;;;;5009383;28;20049;-73
2023/05/14 07:24:32;;;;;;;2.20;2.10;;;;;;;;;;5017828;28;20054;-73
2023/05/14 07:27:00;;;;;;;2.17;2.08;;;;;;;;;;5019251;28;20899;-73
2023/05/14 07:29:29;;;;;;;1.90;1.80;;;;;;;;;;5001848;28;20053;-73
2023/05/14 07:31:56;;;;;;;1.85;1.75;;;;;;;;;;5015370;28;20100;-73
2023/05/14 07:34:24;;;;;;;1.90;1.80;;;;;;;;;;5010324;28;20623;-73
2023/05/14 07:36:55;;;;;;;2.00;1.90;;;;;;;;;;5008892;28;20060;-72
2023/05/14 07:39:24;;;;;;;1.80;1.70;;;;;;;;;;5012418;28;22325;-73
2023/05/14 07:41:53;;;;;;;1.88;1.77;;;;;;;;;;5020889;28;20068;-73
2023/05/14 07:44:23;;;;;;;1.60;1.50;;;;;;;;;;4997869;28;20084;-73
2023/05/14 07:46:50;;;;;;;1.70;1.60;;;;;;;;;;5012310;28;20124;-74
2023/05/14 07:49:18;;;;;;;1.90;1.80;;;;;;;;;;5009403;28;20435;-72
2023/05/14 07:51:46;;;;;;;1.60;1.60;;;;;;;;;;4998358;28;20089;-73
2023/05/14 07:54:14;;;;;;;1.42;1.42;;;;;;;;;;5011945;28;20077;-73
2023/05/14 07:56:41;;;;;;;1.85;1.75;;;;;;;;;;5007070;28;20046;-73
2023/05/14 07:59:08;;;;;;;1.80;1.70;;;;;;;;;;5012063;28;20415;-73
2023/05/14 08:01:36;;;;;;;2.10;2.00;;;;;;;;;;5001167;28;20064;-74
2023/05/14 08:04:06;;;;;;;1.80;1.70;;;;;;;;;;5012941;28;20057;-73
2023/05/14 08:06:34;;;;;;;1.85;1.75;;;;;;;;;;5018300;28;20045;-74
2023/05/14 08:09:07;;;;;;;1.90;1.80;;;;;;;;;;5009043;28;20045;-74
2023/05/14 08:11:34;;;;;;;1.58;1.50;;;;;;;;;;5014990;28;20506;-73
2023/05/14 08:14:02;;;;;;;1.60;1.50;;;;;;;;;;5021138;28;20562;-73
2023/05/14 08:16:29;;;;;;;1.85;1.75;;;;;;;;;;5001276;28;20040;-74
2023/05/14 08:18:57;;;;;;;1.95;1.85;;;;;;;;;;5022311;28;20049;-73
2023/05/14 08:21:24;;;;;;;1.77;1.67;;;;;;;;;;5002986;28;20134;-73
2023/05/14 08:23:51;;;;;;;2.10;2.00;;;;;;;;;;5021732;28;20384;-73
2023/05/14 08:26:20;;;;;;;1.80;1.70;;;;;;;;;;5014952;28;20065;-73
2023/05/14 08:28:47;;;;;;;1.92;1.83;;;;;;;;;;5015388;28;20120;-73
2023/05/14 08:31:15;;;;;;;1.35;1.35;;;;;;;;;;5011719;28;20156;-73
2023/05/14 08:33:42;;;;;;;1.60;1.50;;;;;;;;;;5015795;28;20531;-73
2023/05/14 08:36:09;;;;;;;1.60;1.50;;;;;;;;;;5020438;28;20495;-73
2023/05/14 08:38:37;;;;;;;1.60;1.60;;;;;;;;;;5027459;28;20053;-73
2023/05/14 08:41:05;;;;;;;1.80;1.70;;;;;;;;;;5024742;28;20057;-73
2023/05/14 08:43:41;;;;;;;1.70;1.60;;;;;;;;;;5022654;28;20049;-73
2023/05/14 08:46:10;;;;;;;3.63;1.60;;;;;;;;;;5025769;28;20065;-74
2023/05/14 08:48:40;;;;;;;1.60;1.60;;;;;;;;;;5022854;28;20136;-74
2023/05/14 08:51:07;;;;;;;1.70;1.70;;;;;;;;;;5021023;28;20072;-74
2023/05/14 08:53:37;;;;;;;1.55;1.45;;;;;;;;;;5007064;28;20057;-74
2023/05/14 08:56:04;;;;;;;1.40;1.40;;;;;;;;;;5027612;28;20041;-73
2023/05/14 08:58:32;;;;;;;1.67;1.58;;;;;;;;;;5027237;28;20057;-74
2023/05/14 09:00:59;;;;;;;1.80;1.70;;;;;;;;;;5030197;28;20049;-74
2023/05/14 09:03:27;;;;;;;1.55;1.50;;;;;;;;;;5008616;28;20066;-74
2023/05/14 09:05:55;;;;;;;1.55;1.45;;;;;;;;;;5023935;28;20080;-74
2023/05/14 09:08:26;;;;;;;1.45;1.45;;;;;;;;;;5019422;28;21198;-73
2023/05/14 09:10:53;;;;;;;1.60;1.50;;;;;;;;;;5006836;28;20046;-73
2023/05/14 09:13:21;;;;;;;1.50;1.40;;;;;;;;;;5015014;28;20072;-73
2023/05/14 09:15:50;;;;;;;1.80;1.70;;;;;;;;;;5028646;28;20041;-73
2023/05/14 09:18:17;;;;;;;1.40;1.35;;;;;;;;;;5016959;28;20599;-74
2023/05/14 09:20:46;;;;;;;1.45;1.45;;;;;;;;;;5031227;28;20100;-74
2023/05/14 09:23:13;;;;;;;1.45;1.45;;;;;;;;;;5031116;28;20049;-72
2023/05/14 09:25:42;;;;;;;1.40;1.40;;;;;;;;;;5027798;28;20148;-73
2023/05/14 09:28:09;;;;;;;2.25;1.55;;;;;;;;;;5028699;28;20116;-72
2023/05/14 09:30:37;;;;;;;1.83;1.80;;;;;;;;;;5026864;28;20064;-73
2023/05/14 09:33:07;;;;;;;1.30;1.30;;;;;;;;;;5027120;28;20406;-73
2023/05/14 09:35:36;;;;;;;1.55;1.55;;;;;;;;;;5027720;28;20163;-73
2023/05/14 09:38:04;;;;;;;1.73;1.63;;;;;;;;;;5027853;28;20041;-73
2023/05/14 09:40:32;;;;;;;1.42;1.33;;;;;;;;;;5026219;28;20073;-73
2023/05/14 09:43:00;;;;;;;1.77;1.67;;;;;;;;;;5025896;28;20046;-73
2023/05/14 09:45:28;;;;;;;1.70;1.60;;;;;;;;;;5026195;28;20053;-72
2023/05/14 09:47:59;;;;;;;1.40;1.30;;;;;;;;;;5018420;28;20092;-74
2023/05/14 09:50:26;;;;;;;1.23;1.23;;;;;;;;;;5019973;28;21189;-73
2023/05/14 09:52:55;;;;;;;2.15;2.00;;;;;;;;;;5024910;28;20526;-73
2023/05/14 09:55:22;;;;;;;1.52;1.42;;;;;;;;;;5019730;28;20088;-73
2023/05/14 09:57:49;;;;;;;1.30;1.30;;;;;;;;;;5018812;28;20050;-73
2023/05/14 10:00:17;;;;;;;1.40;1.30;;;;;;;;;;5013993;28;20045;-74
2023/05/14 10:02:45;;;;;;;1.40;1.40;;;;;;;;;;5014015;28;20056;-74
2023/05/14 10:05:14;;;;;;;1.48;1.42;;;;;;;;;;5022446;28;20057;-74
2023/05/14 10:07:47;;;;;;;1.50;1.50;;;;;;;;;;5023808;28;20427;-74
2023/05/14 10:10:21;;;;;;;1.10;1.10;;;;;;;;;;5017837;28;20148;-74
2023/05/14 10:12:51;;;;;;;1.80;1.70;;;;;;;;;;5012628;28;20091;-73
2023/05/14 10:15:33;;;;;;;1.65;1.55;;;;;;;;;;5021291;28;20045;-73
2023/05/14 10:18:03;;;;;;;1.58;1.48;;;;;;;;;;5015709;28;20128;-74
2023/05/14 10:20:31;;;;;;;1.60;1.60;;;;;;;;;;5013305;28;20057;-74
2023/05/14 10:22:59;;;;;;;1.48;1.48;;;;;;;;;;5009080;28;20389;-74
2023/05/14 10:25:26;;;;;;;1.27;1.27;;;;;;;;;;5019553;28;20056;-74
2023/05/14 10:27:54;;;;;;;1.60;1.50;;;;;;;;;;5024486;28;20477;-74
2023/05/14 10:30:22;;;;;;;1.20;1.20;;;;;;;;;;5019206;28;20579;-73
2023/05/14 10:33:05;;;;;;;1.40;1.40;;;;;;;;;;5013660;28;20143;-73
2023/05/14 10:35:50;;;;;;;1.90;1.80;;;;;;;;;;5016046;28;20048;-73
2023/05/14 10:38:17;;;;;;;1.75;1.65;;;;;;;;;;5015582;28;20128;-74
2023/05/14 10:40:47;;;;;;;1.92;1.48;;;;;;;;;;5015445;28;20638;-74
2023/05/14 10:43:15;;;;;;;1.23;1.23;;;;;;;;;;5009731;28;20060;-73
2023/05/14 10:45:43;;;;;;;1.35;1.35;;;;;;;;;;5014560;28;20052;-73
2023/05/14 10:48:10;;;;;;;1.42;1.33;;;;;;;;;;5017924;28;20053;-74
2023/05/14 10:50:38;;;;;;;1.25;1.20;;;;;;;;;;5012772;28;20061;-73
2023/05/14 10:53:10;;;;;;;2.17;1.52;;;;;;;;;;5015058;28;20124;-74
2023/05/14 10:55:38;;;;;;;1.63;1.58;;;;;;;;;;5015651;28;20514;-74
2023/05/14 10:58:06;;;;;;;1.90;1.80;;;;;;;;;;5017252;28;20058;-73
2023/05/14 11:00:35;;;;;;;2.47;2.28;;;;;;;;;;5016786;28;20415;-73
2023/05/14 11:03:04;;;;;;;2.42;2.33;;;;;;;;;;5017801;28;20034;-74
2023/05/14 11:05:32;;;;;;;1.60;1.60;;;;;;;;;;5018931;28;20045;-74
2023/05/14 11:08:02;;;;;;;2.00;1.90;;;;;;;;;;5016949;28;20033;-74
2023/05/14 11:10:30;;;;;;;2.65;2.45;;;;;;;;;;5016388;28;20144;-73
2023/05/14 11:12:58;;;;;;;2.20;2.10;;;;;;;;;;5016412;28;20097;-73
2023/05/14 11:15:28;;;;;;;2.20;2.10;;;;;;;;;;5015860;28;20462;-74
2023/05/14 11:17:59;;;;;;;2.03;1.80;;;;;;;;;;5015296;28;20598;-74
2023/05/14 11:20:26;;;;;;;3.40;3.10;;;;;;;;;;5001288;28;20049;-72
2023/05/14 11:22:54;;;;;;;2.30;2.20;;;;;;;;;;5018618;28;20550;-74
2023/05/14 11:25:24;;;;;;;2.00;1.90;;;;;;;;;;5020835;28;20053;-74
2023/05/14 11:27:57;;;;;;;1.73;1.60;;;;;;;;;;5019598;28;20596;-74
2023/05/14 11:30:24;;;;;;;1.30;1.30;;;;;;;;;;5023644;28;20041;-74
2023/05/14 11:32:53;;;;;;;1.40;1.40;;;;;;;;;;5016702;28;20049;-73
2023/05/14 11:35:24;;;;;;;1.27;1.27;;;;;;;;;;5022728;28;20100;-73
2023/05/14 11:37:52;;;;;;;1.40;1.30;;;;;;;;;;5016545;28;20048;-73
2023/05/14 11:40:20;;;;;;;1.30;1.30;;;;;;;;;;5015802;28;20054;-74
2023/05/14 11:42:50;;;;;;;1.40;1.30;;;;;;;;;;5018947;28;20124;-74
2023/05/14 11:45:32;;;;;;;1.40;1.33;;;;;;;;;;5017490;28;20040;-74
2023/05/14 11:47:59;;;;;;;1.55;1.50;;;;;;;;;;5017062;28;20294;-73
2023/05/14 11:50:27;;;;;;;1.70;1.60;;;;;;;;;;5017354;28;20045;-74
2023/05/14 11:52:57;;;;;;;2.15;1.73;;;;;;;;;;5014630;28;20282;-74
2023/05/14 11:55:25;;;;;;;1.90;1.80;;;;;;;;;;5022527;28;20045;-73
2023/05/14 11:57:52;;;;;;;2.05;1.95;;;;;;;;;;5010282;28;20040;-74
2023/05/14 12:00:21;;;;;;;1.73;1.63;;;;;;;;;;5020181;28;20053;-73
2023/05/14 12:02:49;;;;;;;1.80;1.70;;;;;;;;;;5017435;28;20144;-74
2023/05/14 12:05:17;;;;;;;2.10;2.00;;;;;;;;;;5022805;28;20069;-74
2023/05/14 12:07:45;;;;;;;3.00;1.83;;;;;;;;;;5018597;28;20107;-74
2023/05/14 12:10:12;;;;;;;1.73;1.65;;;;;;;;;;5004928;28;20045;-74
2023/05/14 12:12:40;;;;;;;1.65;1.55;;;;;;;;;;5011805;28;21018;-74
2023/05/14 12:15:12;;;;;;;1.80;1.70;;;;;;;;;;5016477;28;20042;-73
2023/05/14 12:17:39;;;;;;;1.50;1.50;;;;;;;;;;5016154;28;20109;-73
2023/05/14 12:20:11;;;;;;;1.80;1.70;;;;;;;;;;5012923;28;20136;-74
2023/05/14 12:22:38;;;;;;;;;;;;;;;;;;5018058;28;20047;-75
2023/05/14 12:25:11;;;;;;;1.92;1.83;;;;;;;;;;5021162;28;19925;-74
2023/05/14 12:27:38;;;;;;;2.70;2.00;;;;;;;;;;5010966;28;20052;-73
2023/05/14 12:30:06;;;;;;;2.00;1.90;;;;;;;;;;5026512;28;20471;-73
2023/05/14 12:32:39;;;;;;;2.42;1.80;;;;;;;;;;5018492;28;20495;-74
2023/05/14 12:35:07;;;;;;;2.00;1.90;;;;;;;;;;5018812;28;20045;-74
2023/05/14 12:37:36;;;;;;;2.55;1.60;;;;;;;;;;4984282;28;20141;-74
2023/05/14 12:40:08;;;;;;;1.20;1.20;;;;;;;;;;5022088;28;20542;-75
2023/05/14 12:42:48;;;;;;;1.40;1.40;;;;;;;;;;5016820;28;20527;-73
2023/05/14 12:45:15;;;;;;;1.58;1.48;;;;;;;;;;5020383;28;20050;-74
2023/05/14 12:47:42;;;;;;;1.60;1.50;;;;;;;;;;5014644;28;20103;-74
2023/05/14 12:50:10;;;;;;;1.63;1.63;;;;;;;;;;5020737;28;20049;-74
2023/05/14 12:52:37;;;;;;;1.70;1.60;;;;;;;;;;5017663;28;20046;-74
2023/05/14 12:55:09;;;;;;;1.70;1.60;;;;;;;;;;5017669;28;20903;-73
2023/05/14 12:57:37;;;;;;;1.90;1.80;;;;;;;;;;5019875;28;20445;-74
2023/05/14 13:00:06;;;;;;;1.48;1.48;;;;;;;;;;5021438;28;20450;-74
2023/05/14 13:02:34;;;;;;;1.50;1.50;;;;;;;;;;5019500;28;20125;-75
2023/05/14 13:05:10;;;;;;;2.13;1.20;;;;;;;;;;5018553;28;20057;-74
2023/05/14 13:07:38;;;;;;;1.10;1.10;;;;;;;;;;4997350;28;20037;-74
2023/05/14 13:10:06;;;;;;;1.30;1.30;;;;;;;;;;5018616;28;20076;-74
2023/05/14 13:12:33;;;;;;;1.10;1.10;;;;;;;;;;5021269;28;20036;-74
2023/05/14 13:15:01;;;;;;;1.20;1.20;;;;;;;;;;5021698;28;20158;-74
2023/05/14 13:17:31;;;;;;;0.88;0.88;;;;;;;;;;5021240;28;20054;-75
2023/05/14 13:19:58;;;;;;;0.90;0.90;;;;;;;;;;5019108;28;20053;-74
2023/05/14 13:22:25;;;;;;;0.80;0.80;;;;;;;;;;5030384;28;20458;-74
2023/05/14 13:24:53;;;;;;;0.80;0.80;;;;;;;;;;5027485;28;20061;-74
2023/05/14 13:27:20;;;;;;;0.70;0.70;;;;;;;;;;5026159;28;20587;-74
2023/05/14 13:29:47;;;;;;;0.70;0.70;;;;;;;;;;5023671;28;20155;-74
2023/05/14 13:32:15;;;;;;;0.75;0.75;;;;;;;;;;5025898;28;20045;-74
2023/05/14 13:34:42;;;;;;;1.00;1.00;;;;;;;;;;5033614;28;20047;-75
2023/05/14 13:37:10;;;;;;;0.70;0.70;;;;;;;;;;5023916;28;20763;-75
2023/05/14 13:39:38;;;;;;;0.60;0.60;;;;;;;;;;5025783;28;20099;-74
2023/05/14 13:42:10;;;;;;;0.85;0.85;;;;;;;;;;5022746;28;20511;-75
2023/05/14 13:44:39;;;;;;;0.60;0.60;;;;;;;;;;4986683;28;20132;-75
2023/05/14 13:47:07;;;;;;;0.80;0.80;;;;;;;;;;5015975;28;20042;-75
2023/05/14 13:49:34;;;;;;;0.70;0.70;;;;;;;;;;5023034;28;20038;-74
2023/05/14 13:52:02;;;;;;;0.70;0.70;;;;;;;;;;5020996;28;20096;-74
2023/05/14 13:54:29;;;;;;;0.63;0.63;;;;;;;;;;5026665;28;20092;-75
2023/05/14 13:56:57;;;;;;;0.70;0.70;;;;;;;;;;5031819;28;20504;-75
2023/05/14 13:59:24;;;;;;;0.57;0.57;;;;;;;;;;5023374;28;20344;-74
2023/05/14 14:01:52;;;;;;;0.50;0.50;;;;;;;;;;5021941;28;20088;-75
2023/05/14 14:04:19;;;;;;;0.57;0.57;;;;;;;;;;5016687;28;20049;-74
2023/05/14 14:06:47;;;;;;;0.57;0.57;;;;;;;;;;5024498;28;20585;-75
2023/05/14 14:09:14;;;;;;;0.50;0.50;;;;;;;;;;5026093;28;20042;-72
2023/05/14 14:11:42;;;;;;;0.57;0.57;;;;;;;;;;5017105;28;20426;-73
2023/05/14 14:14:09;;;;;;;0.50;0.50;;;;;;;;;;5021964;28;20116;-74
2023/05/14 14:16:40;;;;;;;0.68;0.68;;;;;;;;;;5008509;28;20120;-74
2023/05/14 14:19:08;;;;;;;0.50;0.50;;;;;;;;;;5016544;28;20546;-74
2023/05/14 14:21:41;;;;;;;0.50;0.50;;;;;;;;;;5019465;28;20079;-74
2023/05/14 14:24:18;;;;;;;0.30;0.30;;;;;;;;;;5024913;28;20435;-75
2023/05/14 14:26:45;;;;;;;0.50;0.50;;;;;;;;;;5020882;28;20141;-74
2023/05/14 14:29:14;;;;;;;0.40;0.40;;;;;;;;;;5020837;28;20076;-75
2023/05/14 14:31:44;;;;;;;0.75;0.40;;;;;;;;;;4999604;28;20049;-74
2023/05/14 14:34:26;;;;;;;0.30;0.30;;;;;;;;;;5025697;28;20068;-74
2023/05/14 14:37:14;;;;;;;0.30;0.30;;;;;;;;;;5016634;28;20052;-74
2023/05/14 14:39:50;;;;;;;0.52;0.30;;;;;;;;;;5019467;28;20050;-73
2023/05/14 14:42:18;;;;;;;0.40;0.40;;;;;;;;;;5020947;28;20128;-74
2023/05/14 14:44:45;;;;;;;0.40;0.40;;;;;;;;;;5023180;28;20050;-74
2023/05/14 14:47:13;;;;;;;0.40;0.40;;;;;;;;;;5020307;28;20061;-75
2023/05/14 14:49:40;;;;;;;0.30;0.30;;;;;;;;;;5019158;28;20050;-73